Andrus Island, California
Current Conditions -  °F | °C
As of 4:58 PM on Thursday 27 Nov 2014 (Local Time) from KSUU Reporting Station
Clear Clear  
Wind Chill: 62°   Ceiling: Unl
Heat Index: 62°   Visibility: 10mi
Dew Point: 53°   Wind: 0mph
Humidity: 74%   Direction: NA
Pressure: 30.06"   Gusts: NA
Location:  38.1457°N, 121.624°W
Report Text: KSUU 280058Z AUTO 00000KT 10SM CLR 17/12 A3006 RMK AO2 SLP186 T01650119 $
Loading
Personal Weather Stations






























Interactive Weather Map New forecast layout! Learn more

10-Day Weather Forecast

Advertisements
Track Severe Weather on mobile